createdAt,value
2019-05-26T00:00:17.663Z,0.00
2019-05-26T00:01:17.660Z,0.00
2019-05-26T00:02:17.661Z,0.00
2019-05-26T00:03:17.638Z,0.00
2019-05-26T00:04:17.626Z,0.00
2019-05-26T00:05:17.609Z,0.00
2019-05-26T00:06:17.604Z,0.00
2019-05-26T00:07:30.132Z,0.00
2019-05-26T00:08:18.584Z,0.00
2019-05-26T00:09:17.575Z,0.00
2019-05-26T00:10:17.562Z,0.00
2019-05-26T00:11:17.547Z,0.00
2019-05-26T00:12:17.571Z,0.00
2019-05-26T00:13:17.522Z,0.00
2019-05-26T00:14:17.512Z,0.00
2019-05-26T00:15:17.511Z,0.00
2019-05-26T00:16:17.501Z,0.00
2019-05-26T00:17:17.520Z,0.00
2019-05-26T00:18:17.487Z,0.00
2019-05-26T00:19:17.465Z,0.00
2019-05-26T00:20:17.451Z,0.00
2019-05-26T00:21:17.497Z,0.00
2019-05-26T00:22:17.451Z,0.00
2019-05-26T00:23:17.418Z,0.00
2019-05-26T00:24:17.414Z,0.00
2019-05-26T00:25:17.409Z,0.00
2019-05-26T00:26:17.388Z,0.00
2019-05-26T00:27:17.401Z,0.00
2019-05-26T00:28:17.398Z,0.00
2019-05-26T00:29:17.349Z,0.00
2019-05-26T00:30:17.347Z,0.00
2019-05-26T00:31:17.326Z,0.00
2019-05-26T00:32:17.355Z,0.00
2019-05-26T00:33:17.316Z,0.00
2019-05-26T00:34:17.300Z,0.00
2019-05-26T00:35:17.293Z,0.00
2019-05-26T00:36:17.281Z,0.00
2019-05-26T00:37:17.300Z,0.00
2019-05-26T00:38:17.263Z,0.00
2019-05-26T00:39:17.250Z,0.00
2019-05-26T00:40:17.232Z,0.00
2019-05-26T00:41:17.224Z,0.00
2019-05-26T00:42:17.232Z,0.00
2019-05-26T00:43:17.203Z,0.00
2019-05-26T00:44:17.192Z,0.00
2019-05-26T00:45:17.180Z,0.00
2019-05-26T00:46:17.166Z,0.00
2019-05-26T00:47:17.180Z,0.00
2019-05-26T00:48:17.155Z,0.00
2019-05-26T00:49:17.141Z,0.00
2019-05-26T00:50:17.129Z,0.00
2019-05-26T00:51:17.117Z,0.00
2019-05-26T00:52:17.141Z,0.00
2019-05-26T00:53:17.121Z,0.00
2019-05-26T00:54:17.082Z,0.00
2019-05-26T00:55:17.074Z,0.00
2019-05-26T00:56:17.074Z,0.00
2019-05-26T00:57:17.077Z,0.00
2019-05-26T00:58:17.051Z,0.00
2019-05-26T00:59:17.042Z,0.00
2019-05-26T01:00:17.023Z,0.00
2019-05-26T01:01:17.017Z,0.00
2019-05-26T01:02:17.133Z,0.00
2019-05-26T01:03:16.986Z,0.00
2019-05-26T01:04:16.982Z,0.00
2019-05-26T01:05:16.974Z,0.00
2019-05-26T01:06:16.960Z,0.00
2019-05-26T01:07:16.989Z,0.00
2019-05-26T01:08:16.935Z,0.00
2019-05-26T01:09:16.918Z,0.00
2019-05-26T01:10:16.913Z,0.00
2019-05-26T01:11:16.923Z,0.00
2019-05-26T01:12:16.917Z,0.00
2019-05-26T01:13:16.883Z,0.00
2019-05-26T01:14:16.904Z,0.00
2019-05-26T01:15:16.863Z,0.00
2019-05-26T01:16:16.854Z,0.00
2019-05-26T01:17:16.857Z,0.00
2019-05-26T01:18:16.829Z,0.00
2019-05-26T01:19:16.823Z,0.00
2019-05-26T01:20:16.809Z,0.00
2019-05-26T01:21:16.795Z,0.00
2019-05-26T01:22:16.925Z,0.00
2019-05-26T01:23:16.778Z,0.00
2019-05-26T01:24:16.775Z,0.00
2019-05-26T01:25:16.763Z,0.00
2019-05-26T01:26:16.742Z,0.00
2019-05-26T01:27:16.753Z,0.00
2019-05-26T01:28:16.723Z,0.00
2019-05-26T01:29:16.716Z,0.00
2019-05-26T01:30:16.715Z,0.00
2019-05-26T01:31:16.708Z,0.00
2019-05-26T01:32:16.697Z,0.00
2019-05-26T01:33:16.668Z,0.00
2019-05-26T01:34:16.661Z,0.00
2019-05-26T01:35:16.669Z,0.00
2019-05-26T01:36:16.642Z,0.00
2019-05-26T01:37:16.649Z,0.00
2019-05-26T01:38:23.666Z,0.00
2019-05-26T01:39:17.600Z,0.00
2019-05-26T01:40:16.598Z,0.00
2019-05-26T01:41:16.589Z,0.00
2019-05-26T01:42:16.616Z,0.00
2019-05-26T01:43:16.593Z,0.00
2019-05-26T01:44:16.552Z,0.00
2019-05-26T01:45:16.537Z,0.00
2019-05-26T01:46:16.553Z,0.00
2019-05-26T01:47:16.543Z,0.00
2019-05-26T01:48:16.534Z,0.00
2019-05-26T01:49:16.494Z,0.00
2019-05-26T01:50:16.487Z,0.00
2019-05-26T01:51:16.476Z,0.00
2019-05-26T01:52:16.481Z,0.00
2019-05-26T01:53:16.508Z,0.00
2019-05-26T01:54:16.446Z,0.00
2019-05-26T01:55:16.433Z,0.00
2019-05-26T01:56:16.419Z,0.00
2019-05-26T01:57:16.431Z,0.00
2019-05-26T01:58:16.398Z,0.00
2019-05-26T01:59:16.402Z,0.00
2019-05-26T02:00:16.387Z,0.00
2019-05-26T02:01:16.367Z,0.00
2019-05-26T02:02:16.355Z,0.00
2019-05-26T02:03:16.366Z,0.00
2019-05-26T02:04:16.346Z,0.00
2019-05-26T02:05:16.334Z,0.00
2019-05-26T02:06:16.324Z,0.00
2019-05-26T02:07:16.300Z,0.00
2019-05-26T02:08:16.324Z,0.00
2019-05-26T02:09:16.283Z,0.00
2019-05-26T02:10:16.285Z,0.00
2019-05-26T02:11:16.257Z,0.00
2019-05-26T02:12:16.243Z,0.00
2019-05-26T02:13:16.253Z,0.00
2019-05-26T02:14:16.231Z,0.00
2019-05-26T02:15:16.211Z,0.00
2019-05-26T02:16:16.208Z,0.00
2019-05-26T02:17:16.191Z,0.00
2019-05-26T02:18:16.200Z,0.00
2019-05-26T02:19:16.175Z,4.00
2019-05-26T02:20:16.167Z,4.00
2019-05-26T02:21:16.150Z,4.00
2019-05-26T02:22:16.153Z,0.00
2019-05-26T02:23:16.166Z,4.00
2019-05-26T02:24:16.117Z,4.00
2019-05-26T02:25:25.225Z,4.00
2019-05-26T02:26:25.247Z,8.00
2019-05-26T02:27:16.090Z,4.00
2019-05-26T02:28:16.090Z,4.00
2019-05-26T02:29:23.377Z,8.00
2019-05-26T02:30:16.063Z,8.00
2019-05-26T02:31:16.062Z,8.00
2019-05-26T02:32:24.816Z,8.00
2019-05-26T02:33:16.047Z,12.00
2019-05-26T02:34:16.014Z,12.00
2019-05-26T02:35:24.290Z,12.00
2019-05-26T02:36:15.994Z,16.00
2019-05-26T02:37:15.984Z,16.00
2019-05-26T02:38:16.002Z,20.00
2019-05-26T02:39:15.973Z,24.00
2019-05-26T02:40:15.998Z,24.00
2019-05-26T02:41:15.954Z,28.00
2019-05-26T02:42:15.928Z,32.00
2019-05-26T02:43:15.956Z,36.00
2019-05-26T02:44:15.908Z,40.00
2019-05-26T02:45:15.910Z,44.00
2019-05-26T02:46:15.883Z,48.00
2019-05-26T02:47:15.879Z,56.00
2019-05-26T02:48:15.934Z,60.00
2019-05-26T02:49:15.856Z,64.00
2019-05-26T02:50:15.863Z,68.00
2019-05-26T02:51:15.845Z,72.00
2019-05-26T02:52:15.836Z,80.00
2019-05-26T02:53:15.840Z,84.00
2019-05-26T02:54:15.798Z,88.00
2019-05-26T02:55:15.793Z,96.00
2019-05-26T02:56:15.814Z,100.00
2019-05-26T02:57:15.775Z,108.00
2019-05-26T02:58:15.799Z,116.00
2019-05-26T02:59:15.742Z,120.00
2019-05-26T03:00:15.732Z,128.00
2019-05-26T03:01:15.731Z,132.00
2019-05-26T03:02:15.715Z,144.00
2019-05-26T03:03:15.725Z,152.00
2019-05-26T03:04:15.758Z,160.00
2019-05-26T03:05:15.677Z,176.00
2019-05-26T03:06:15.686Z,188.00
2019-05-26T03:07:15.660Z,204.00
2019-05-26T03:08:15.670Z,224.00
2019-05-26T03:09:22.470Z,244.00
2019-05-26T03:10:16.642Z,264.00
2019-05-26T03:11:15.619Z,284.00
2019-05-26T03:12:15.612Z,304.00
2019-05-26T03:13:15.627Z,320.00
2019-05-26T03:14:15.591Z,344.00
2019-05-26T03:15:15.584Z,364.00
2019-05-26T03:16:15.560Z,388.00
2019-05-26T03:17:15.552Z,408.00
2019-05-26T03:18:15.569Z,432.00
2019-05-26T03:19:15.532Z,456.00
2019-05-26T03:20:15.538Z,480.00
2019-05-26T03:21:15.518Z,496.00
2019-05-26T03:22:15.497Z,516.00
2019-05-26T03:23:15.566Z,536.00
2019-05-26T03:24:15.542Z,552.00
2019-05-26T03:25:15.476Z,572.00
2019-05-26T03:26:22.736Z,592.00
2019-05-26T03:27:15.450Z,612.00
2019-05-26T03:28:15.469Z,632.00
2019-05-26T03:29:15.431Z,652.00
2019-05-26T03:30:15.474Z,668.00
2019-05-26T03:31:15.411Z,692.00
2019-05-26T03:32:15.394Z,708.00
2019-05-26T03:33:15.424Z,728.00
2019-05-26T03:34:15.442Z,748.00
2019-05-26T03:35:15.360Z,768.00
2019-05-26T03:36:15.357Z,788.00
2019-05-26T03:37:15.362Z,812.00
2019-05-26T03:38:15.332Z,832.00
2019-05-26T03:39:15.324Z,856.00
2019-05-26T03:40:15.299Z,876.00
2019-05-26T03:41:15.301Z,892.00
2019-05-26T03:42:15.315Z,916.00
2019-05-26T03:43:15.312Z,944.00
2019-05-26T03:44:15.258Z,976.00
2019-05-26T03:45:15.254Z,1012.00
2019-05-26T03:46:15.246Z,1052.00
2019-05-26T03:47:16.847Z,1092.00
2019-05-26T03:48:15.258Z,1128.00
2019-05-26T03:49:15.211Z,1168.00
2019-05-26T03:50:15.210Z,1200.00
2019-05-26T03:51:15.190Z,1240.00
2019-05-26T03:52:15.189Z,1272.00
2019-05-26T03:53:15.193Z,1308.00
2019-05-26T03:54:15.161Z,1344.00
2019-05-26T03:55:15.151Z,1372.00
2019-05-26T03:56:15.137Z,1404.00
2019-05-26T03:57:15.122Z,1428.00
2019-05-26T03:58:15.149Z,1448.00
2019-05-26T03:59:15.106Z,1464.00
2019-05-26T04:00:15.094Z,1476.00
2019-05-26T04:01:15.114Z,1484.00
2019-05-26T04:02:15.101Z,1496.00
2019-05-26T04:03:15.058Z,1508.00
2019-05-26T04:04:15.095Z,1524.00
2019-05-26T04:05:15.047Z,1540.00
2019-05-26T04:06:15.038Z,1556.00
2019-05-26T04:07:15.027Z,1580.00
2019-05-26T04:08:15.011Z,1600.00
2019-05-26T04:09:15.016Z,1624.00
2019-05-26T04:10:14.983Z,1648.00
2019-05-26T04:11:14.977Z,1672.00
2019-05-26T04:12:14.982Z,1704.00
2019-05-26T04:13:14.965Z,1736.00
2019-05-26T04:14:14.971Z,1768.00
2019-05-26T04:15:14.940Z,1808.00
2019-05-26T04:16:14.915Z,1840.00
2019-05-26T04:17:14.908Z,1872.00
2019-05-26T04:18:14.901Z,1904.00
2019-05-26T04:19:14.907Z,1932.00
2019-05-26T04:20:14.885Z,1972.00
2019-05-26T04:21:14.860Z,2016.00
2019-05-26T04:22:14.856Z,2052.00
2019-05-26T04:23:14.848Z,2080.00
2019-05-26T04:24:14.883Z,2108.00
2019-05-26T04:25:14.829Z,2140.00
2019-05-26T04:26:14.824Z,2164.00
2019-05-26T04:27:14.807Z,2184.00
2019-05-26T04:28:14.798Z,2196.00
2019-05-26T04:29:14.912Z,2216.00
2019-05-26T04:30:14.770Z,2224.00
2019-05-26T04:31:14.780Z,2220.00
2019-05-26T04:32:14.747Z,2212.00
2019-05-26T04:33:14.733Z,2208.00
2019-05-26T04:34:14.797Z,2212.00
2019-05-26T04:35:14.717Z,2228.00
2019-05-26T04:36:14.708Z,2252.00
2019-05-26T04:37:14.700Z,2280.00
2019-05-26T04:38:14.704Z,2312.00
2019-05-26T04:39:14.688Z,2348.00
2019-05-26T04:40:26.716Z,2372.00
2019-05-26T04:41:15.658Z,2388.00
2019-05-26T04:42:14.642Z,2396.00
2019-05-26T04:43:15.295Z,2412.00
2019-05-26T04:44:14.667Z,2424.00
2019-05-26T04:45:14.622Z,2444.00
2019-05-26T04:46:14.620Z,2488.00
2019-05-26T04:47:14.595Z,2504.00
2019-05-26T04:48:14.588Z,2520.00
2019-05-26T04:49:14.594Z,2520.00
2019-05-26T04:50:14.562Z,2512.00
2019-05-26T04:51:14.555Z,2528.00
2019-05-26T04:52:14.533Z,2556.00
2019-05-26T04:53:14.529Z,2600.00
2019-05-26T04:54:14.546Z,2660.00
2019-05-26T04:55:14.506Z,2732.00
2019-05-26T04:56:14.498Z,2824.00
2019-05-26T04:57:14.497Z,2936.00
2019-05-26T04:58:14.470Z,3040.00
2019-05-26T04:59:14.479Z,3112.00
2019-05-26T05:00:14.527Z,3132.00
2019-05-26T05:01:14.453Z,3168.00
2019-05-26T05:02:14.426Z,3196.00
2019-05-26T05:03:14.529Z,3224.00
2019-05-26T05:04:14.422Z,3268.00
2019-05-26T05:05:14.398Z,3284.00
2019-05-26T05:06:14.394Z,3304.00
2019-05-26T05:07:14.378Z,3288.00
2019-05-26T05:08:14.364Z,3304.00
2019-05-26T05:09:14.378Z,3368.00
2019-05-26T05:10:14.361Z,3424.00
2019-05-26T05:11:14.331Z,3504.00
2019-05-26T05:12:14.329Z,3588.00
2019-05-26T05:13:14.317Z,3728.00
2019-05-26T05:14:14.319Z,3828.00
2019-05-26T05:15:14.301Z,3996.00
2019-05-26T05:16:14.287Z,4184.00
2019-05-26T05:17:14.277Z,4320.00
2019-05-26T05:18:14.272Z,4504.00
2019-05-26T05:19:14.287Z,4628.00
2019-05-26T05:20:14.237Z,4728.00
2019-05-26T05:21:14.226Z,4712.00
2019-05-26T05:22:14.210Z,4824.00
2019-05-26T05:23:14.207Z,5036.00
2019-05-26T05:24:14.218Z,5088.00
2019-05-26T05:25:15.370Z,5060.00
2019-05-26T05:26:14.180Z,5048.00
2019-05-26T05:27:14.172Z,5028.00
2019-05-26T05:28:14.147Z,4988.00
2019-05-26T05:29:14.155Z,4952.00
2019-05-26T05:30:14.124Z,4912.00
2019-05-26T05:31:14.117Z,4908.00
2019-05-26T05:32:14.112Z,4920.00
2019-05-26T05:33:14.100Z,4960.00
2019-05-26T05:34:14.189Z,5012.00
2019-05-26T05:35:14.077Z,5044.00
2019-05-26T05:36:14.065Z,5088.00
2019-05-26T05:37:14.066Z,5136.00
2019-05-26T05:38:14.054Z,5176.00
2019-05-26T05:39:14.063Z,5224.00
2019-05-26T05:40:14.018Z,5260.00
2019-05-26T05:41:14.026Z,5248.00
2019-05-26T05:42:13.997Z,5188.00
2019-05-26T05:43:13.990Z,5128.00
2019-05-26T05:44:14.010Z,5140.00
2019-05-26T05:45:13.968Z,5128.00
2019-05-26T05:46:13.957Z,5144.00
2019-05-26T05:47:13.970Z,5144.00
2019-05-26T05:48:13.932Z,5148.00
2019-05-26T05:49:13.964Z,5176.00
2019-05-26T05:50:13.908Z,5144.00
2019-05-26T05:51:13.902Z,5120.00
2019-05-26T05:52:13.904Z,5064.00
2019-05-26T05:53:13.885Z,4968.00
2019-05-26T05:54:13.913Z,4892.00
2019-05-26T05:55:13.868Z,4872.00
2019-05-26T05:56:13.847Z,4860.00
2019-05-26T05:57:13.842Z,4836.00
2019-05-26T05:58:13.841Z,4840.00
2019-05-26T05:59:13.870Z,4816.00
2019-05-26T06:00:13.812Z,4856.00
2019-05-26T06:01:13.798Z,4896.00
2019-05-26T06:02:13.784Z,4936.00
2019-05-26T06:03:13.772Z,5004.00
2019-05-26T06:04:13.787Z,5112.00
2019-05-26T06:05:13.752Z,5184.00
2019-05-26T06:06:13.742Z,5292.00
2019-05-26T06:07:13.736Z,5420.00
2019-05-26T06:08:13.721Z,5492.00
2019-05-26T06:09:13.750Z,5624.00
2019-05-26T06:10:13.712Z,5700.00
2019-05-26T06:11:16.813Z,5732.00
2019-05-26T06:12:13.679Z,5788.00
2019-05-26T06:13:13.664Z,5752.00
2019-05-26T06:14:13.696Z,5708.00
2019-05-26T06:15:15.649Z,5660.00
2019-05-26T06:16:13.634Z,5600.00
2019-05-26T06:17:13.629Z,5480.00
2019-05-26T06:18:13.624Z,5324.00
2019-05-26T06:19:13.630Z,5160.00
2019-05-26T06:20:13.593Z,5044.00
2019-05-26T06:21:13.580Z,4976.00
2019-05-26T06:22:13.572Z,4872.00
2019-05-26T06:23:13.561Z,4824.00
2019-05-26T06:24:13.581Z,4776.00
2019-05-26T06:25:13.536Z,4692.00
2019-05-26T06:26:13.524Z,4688.00
2019-05-26T06:27:13.526Z,4752.00
2019-05-26T06:28:13.505Z,4816.00
2019-05-26T06:29:13.540Z,4852.00
2019-05-26T06:30:13.480Z,4840.00
2019-05-26T06:31:13.474Z,4824.00
2019-05-26T06:32:13.673Z,4784.00
2019-05-26T06:33:13.450Z,4780.00
2019-05-26T06:34:13.469Z,4724.00
2019-05-26T06:35:13.444Z,4792.00
2019-05-26T06:36:13.437Z,4836.00
2019-05-26T06:37:13.420Z,4900.00
2019-05-26T06:38:13.394Z,4916.00
2019-05-26T06:39:13.416Z,4964.00
2019-05-26T06:40:13.382Z,5052.00
2019-05-26T06:41:13.372Z,5148.00
2019-05-26T06:42:13.420Z,5224.00
2019-05-26T06:43:13.340Z,5296.00
2019-05-26T06:44:13.353Z,5580.00
2019-05-26T06:45:13.327Z,6340.00
2019-05-26T06:46:13.310Z,6680.00
2019-05-26T06:47:13.299Z,6940.00
2019-05-26T06:48:13.291Z,7340.00
2019-05-26T06:49:13.298Z,7972.00
2019-05-26T06:50:13.268Z,8536.00
2019-05-26T06:51:13.274Z,9184.00
2019-05-26T06:52:13.258Z,9868.00
2019-05-26T06:53:13.231Z,9760.00
2019-05-26T06:54:13.261Z,9548.00
2019-05-26T06:55:13.216Z,8684.00
2019-05-26T06:56:13.314Z,7696.00
2019-05-26T06:57:13.198Z,7512.00
2019-05-26T06:58:13.186Z,7228.00
2019-05-26T06:59:13.169Z,7280.00
2019-05-26T07:00:13.187Z,7388.00
2019-05-26T07:01:13.150Z,7564.00
2019-05-26T07:02:13.144Z,7816.00
2019-05-26T07:03:13.144Z,7720.00
2019-05-26T07:04:13.112Z,7692.00
2019-05-26T07:05:13.139Z,8152.00
2019-05-26T07:06:13.096Z,8444.00
2019-05-26T07:07:13.086Z,8260.00
2019-05-26T07:08:13.125Z,7780.00
2019-05-26T07:09:13.082Z,7636.00
2019-05-26T07:10:13.084Z,7284.00
2019-05-26T07:11:13.051Z,7496.00
2019-05-26T07:12:13.028Z,7744.00
2019-05-26T07:13:13.031Z,7844.00
2019-05-26T07:14:13.016Z,7892.00
2019-05-26T07:15:13.025Z,8164.00
2019-05-26T07:16:12.984Z,8276.00
2019-05-26T07:17:12.972Z,8492.00
2019-05-26T07:18:12.964Z,8772.00
2019-05-26T07:19:12.968Z,8860.00
2019-05-26T07:20:12.968Z,8944.00
2019-05-26T07:21:12.942Z,8964.00
2019-05-26T07:22:12.922Z,8944.00
2019-05-26T07:23:13.171Z,8964.00
2019-05-26T07:24:12.902Z,8940.00
2019-05-26T07:25:12.925Z,8876.00
2019-05-26T07:26:12.890Z,8908.00
2019-05-26T07:27:12.869Z,9052.00
2019-05-26T07:28:12.859Z,9176.00
2019-05-26T07:29:12.848Z,9388.00
2019-05-26T07:30:12.866Z,9556.00
2019-05-26T07:31:12.827Z,9660.00
2019-05-26T07:32:12.818Z,9756.00
2019-05-26T07:33:12.803Z,9812.00
2019-05-26T07:34:12.793Z,9836.00
2019-05-26T07:35:12.820Z,9928.00
2019-05-26T07:36:12.793Z,10032.00
2019-05-26T07:37:12.770Z,10148.00
2019-05-26T07:38:12.788Z,10244.00
2019-05-26T07:39:12.747Z,10348.00
2019-05-26T07:40:12.743Z,10412.00
2019-05-26T07:41:12.731Z,10420.00
2019-05-26T07:42:12.712Z,10444.00
2019-05-26T07:43:12.698Z,10492.00
2019-05-26T07:44:12.715Z,10536.00
2019-05-26T07:45:12.804Z,10548.00
2019-05-26T07:46:12.772Z,10560.00
2019-05-26T07:47:12.690Z,10536.00
2019-05-26T07:48:12.655Z,10516.00
2019-05-26T07:49:12.643Z,10456.00
2019-05-26T07:50:12.705Z,10380.00
2019-05-26T07:51:12.618Z,10312.00
2019-05-26T07:52:12.655Z,10280.00
2019-05-26T07:53:12.600Z,10260.00
2019-05-26T07:54:25.285Z,10256.00
2019-05-26T07:55:13.590Z,10240.00
2019-05-26T07:56:12.559Z,10256.00
2019-05-26T07:57:12.583Z,10320.00
2019-05-26T07:58:12.542Z,10388.00
2019-05-26T07:59:12.551Z,10456.00
2019-05-26T08:00:12.558Z,10512.00
2019-05-26T08:01:12.539Z,10572.00
2019-05-26T08:02:12.543Z,10616.00
2019-05-26T08:03:12.523Z,10628.00
2019-05-26T08:04:12.475Z,10692.00
2019-05-26T08:05:12.579Z,10768.00
2019-05-26T08:06:12.455Z,10900.00
2019-05-26T08:07:12.449Z,11016.00
2019-05-26T08:08:13.605Z,11072.00
2019-05-26T08:09:12.422Z,11112.00
2019-05-26T08:10:12.428Z,11260.00
2019-05-26T08:11:12.410Z,11336.00
2019-05-26T08:12:25.104Z,11344.00
2019-05-26T08:13:13.376Z,11344.00
2019-05-26T08:14:12.371Z,11400.00
2019-05-26T08:15:12.389Z,11448.00
2019-05-26T08:16:12.355Z,11436.00
2019-05-26T08:17:12.338Z,11376.00
2019-05-26T08:18:12.371Z,11320.00
2019-05-26T08:19:12.328Z,11272.00
2019-05-26T08:20:12.369Z,11220.00
2019-05-26T08:21:12.425Z,11176.00
2019-05-26T08:22:12.289Z,11124.00
2019-05-26T08:23:12.275Z,11196.00
2019-05-26T08:24:12.322Z,11316.00
2019-05-26T08:25:12.246Z,11356.00
2019-05-26T08:26:12.318Z,11236.00
2019-05-26T08:27:12.244Z,11256.00
2019-05-26T08:28:12.255Z,11192.00
2019-05-26T08:29:12.226Z,11008.00
2019-05-26T08:30:12.217Z,10872.00
2019-05-26T08:31:13.461Z,10760.00
2019-05-26T08:32:14.913Z,10720.00
2019-05-26T08:33:12.236Z,10676.00
2019-05-26T08:34:12.153Z,10712.00
2019-05-26T08:35:12.181Z,10804.00
2019-05-26T08:36:12.157Z,10896.00
2019-05-26T08:37:12.135Z,10892.00
2019-05-26T08:38:12.115Z,10616.00
2019-05-26T08:39:12.102Z,10492.00
2019-05-26T08:40:12.149Z,10228.00
2019-05-26T08:41:12.111Z,10152.00
2019-05-26T08:42:26.224Z,10144.00
2019-05-26T08:43:13.060Z,10104.00
2019-05-26T08:44:12.042Z,10068.00
2019-05-26T08:45:12.051Z,10028.00
2019-05-26T08:46:12.033Z,9992.00
2019-05-26T08:47:12.017Z,9964.00
2019-05-26T08:48:12.025Z,10036.00
2019-05-26T08:49:11.988Z,10196.00
2019-05-26T08:50:12.022Z,10376.00
2019-05-26T08:51:11.979Z,10512.00
2019-05-26T08:52:11.966Z,10572.00
2019-05-26T08:53:11.944Z,10604.00
2019-05-26T08:54:11.937Z,10952.00
2019-05-26T08:55:11.939Z,11436.00
2019-05-26T08:56:11.932Z,11004.00
2019-05-26T08:57:11.900Z,10520.00
2019-05-26T08:58:11.919Z,10752.00
2019-05-26T08:59:11.880Z,10804.00
2019-05-26T09:00:11.917Z,10772.00
2019-05-26T09:01:11.862Z,10836.00
2019-05-26T09:02:11.864Z,10848.00
2019-05-26T09:03:11.838Z,10768.00
2019-05-26T09:04:11.829Z,10972.00
2019-05-26T09:05:11.838Z,11308.00
2019-05-26T09:06:11.818Z,11924.00
2019-05-26T09:07:11.794Z,11276.00
2019-05-26T09:08:11.782Z,11136.00
2019-05-26T09:09:11.787Z,11320.00
2019-05-26T09:10:11.790Z,11664.00
2019-05-26T09:11:11.760Z,12248.00
2019-05-26T09:12:11.756Z,13248.00
2019-05-26T09:13:11.733Z,12820.00
2019-05-26T09:14:11.726Z,12088.00
2019-05-26T09:15:11.720Z,13252.00
2019-05-26T09:16:11.723Z,12672.00
2019-05-26T09:17:11.706Z,13072.00
2019-05-26T09:18:11.681Z,12304.00
2019-05-26T09:19:11.775Z,12032.00
2019-05-26T09:20:12.167Z,13076.00
2019-05-26T09:21:11.663Z,12536.00
2019-05-26T09:22:11.631Z,12532.00
2019-05-26T09:23:11.633Z,13168.00
2019-05-26T09:24:11.609Z,12924.00
2019-05-26T09:25:11.617Z,14032.00
2019-05-26T09:26:11.611Z,13692.00
2019-05-26T09:27:11.585Z,13500.00
2019-05-26T09:28:11.568Z,13532.00
2019-05-26T09:29:11.559Z,13572.00
2019-05-26T09:30:11.549Z,13424.00
2019-05-26T09:31:11.645Z,14420.00
2019-05-26T09:32:11.536Z,14164.00
2019-05-26T09:33:11.528Z,13120.00
2019-05-26T09:34:11.581Z,12072.00
2019-05-26T09:35:11.495Z,12432.00
2019-05-26T09:36:11.601Z,12596.00
2019-05-26T09:37:11.477Z,13232.00
2019-05-26T09:38:11.470Z,12752.00
2019-05-26T09:39:11.457Z,12212.00
2019-05-26T09:40:11.447Z,13748.00
2019-05-26T09:41:11.452Z,14324.00
2019-05-26T09:42:11.424Z,13648.00
2019-05-26T09:43:16.161Z,12352.00
2019-05-26T09:44:12.395Z,14988.00
2019-05-26T09:45:11.387Z,13360.00
2019-05-26T09:46:11.393Z,14524.00
2019-05-26T09:47:11.367Z,14772.00
2019-05-26T09:48:11.357Z,13884.00
2019-05-26T09:49:11.349Z,12880.00
2019-05-26T09:50:11.349Z,12956.00
2019-05-26T09:51:11.369Z,13120.00
2019-05-26T09:52:11.324Z,16428.00
2019-05-26T09:53:11.302Z,17248.00
2019-05-26T09:54:12.698Z,16928.00
2019-05-26T09:55:11.281Z,16252.00
2019-05-26T09:56:11.302Z,16960.00
2019-05-26T09:57:11.265Z,16896.00
2019-05-26T09:58:11.272Z,16328.00
2019-05-26T09:59:11.242Z,13916.00
2019-05-26T10:00:11.253Z,13500.00
2019-05-26T10:01:11.253Z,17376.00
2019-05-26T10:02:11.217Z,17280.00
2019-05-26T10:03:11.198Z,17760.00
2019-05-26T10:04:11.184Z,18880.00
2019-05-26T10:05:11.184Z,18912.00
2019-05-26T10:06:11.199Z,17440.00
2019-05-26T10:07:15.668Z,17472.00
2019-05-26T10:08:11.140Z,17760.00
2019-05-26T10:09:11.134Z,16452.00
2019-05-26T10:10:11.128Z,17952.00
2019-05-26T10:11:11.129Z,18336.00
2019-05-26T10:12:11.101Z,17088.00
2019-05-26T10:13:11.104Z,17664.00
2019-05-26T10:14:11.076Z,16800.00
2019-05-26T10:15:11.072Z,18112.00
2019-05-26T10:16:11.093Z,18336.00
2019-05-26T10:17:11.073Z,19136.00
2019-05-26T10:18:11.046Z,19104.00
2019-05-26T10:19:11.074Z,19136.00
2019-05-26T10:20:11.021Z,18368.00
2019-05-26T10:21:11.023Z,17312.00
2019-05-26T10:22:10.994Z,18208.00
2019-05-26T10:23:11.003Z,17696.00
2019-05-26T10:24:10.973Z,18304.00
2019-05-26T10:25:10.972Z,19776.00
2019-05-26T10:26:10.994Z,19840.00
2019-05-26T10:27:10.955Z,18624.00
2019-05-26T10:28:10.963Z,15996.00
2019-05-26T10:29:10.929Z,15420.00
2019-05-26T10:30:10.921Z,13800.00
2019-05-26T10:31:10.928Z,13780.00
2019-05-26T10:32:10.896Z,14532.00
2019-05-26T10:33:10.897Z,16140.00
2019-05-26T10:34:13.680Z,18464.00
2019-05-26T10:35:10.868Z,19360.00
2019-05-26T10:36:10.871Z,19264.00
2019-05-26T10:37:10.853Z,18432.00
2019-05-26T10:38:10.821Z,19040.00
2019-05-26T10:39:10.831Z,18464.00
2019-05-26T10:40:10.810Z,17952.00
2019-05-26T10:41:10.935Z,17376.00
2019-05-26T10:42:10.789Z,16832.00
2019-05-26T10:43:10.788Z,15720.00
2019-05-26T10:44:10.759Z,14308.00
2019-05-26T10:45:10.750Z,17632.00
2019-05-26T10:46:10.783Z,18144.00
2019-05-26T10:47:10.728Z,17600.00
2019-05-26T10:48:10.727Z,18240.00
2019-05-26T10:49:10.718Z,19328.00
2019-05-26T10:50:10.709Z,21120.00
2019-05-26T10:51:10.706Z,22272.00
2019-05-26T10:52:11.520Z,22656.00
2019-05-26T10:53:10.667Z,23264.00
2019-05-26T10:54:10.672Z,23360.00
2019-05-26T10:55:10.645Z,20896.00
2019-05-26T10:56:10.660Z,22336.00
2019-05-26T10:57:10.627Z,21088.00
2019-05-26T10:58:10.620Z,22848.00
2019-05-26T10:59:10.637Z,23584.00
2019-05-26T11:00:10.599Z,20064.00
2019-05-26T11:01:10.625Z,23104.00
2019-05-26T11:02:10.578Z,21824.00
2019-05-26T11:03:10.571Z,20192.00
2019-05-26T11:04:10.707Z,19872.00
2019-05-26T11:05:10.551Z,20224.00
2019-05-26T11:06:10.585Z,21536.00
2019-05-26T11:07:10.519Z,19904.00
2019-05-26T11:08:10.503Z,18976.00
2019-05-26T11:09:10.505Z,25024.00
2019-05-26T11:10:10.490Z,42912.00
2019-05-26T11:11:10.497Z,55776.00
2019-05-26T11:12:10.474Z,29408.00
2019-05-26T11:13:10.456Z,25920.00
2019-05-26T11:14:10.446Z,41184.00
2019-05-26T11:15:10.451Z,23808.00
2019-05-26T11:16:10.473Z,32192.00
2019-05-26T11:17:10.418Z,39616.00
2019-05-26T11:18:10.403Z,18720.00
2019-05-26T11:19:10.397Z,18368.00
2019-05-26T11:20:10.432Z,19008.00
2019-05-26T11:21:12.403Z,20960.00
2019-05-26T11:22:10.364Z,24032.00
2019-05-26T11:23:10.379Z,27808.00
2019-05-26T11:24:10.349Z,50080.00
2019-05-26T11:25:10.354Z,31168.00
2019-05-26T11:26:10.354Z,18272.00
2019-05-26T11:27:12.590Z,18848.00
2019-05-26T11:28:10.303Z,32160.00
2019-05-26T11:29:10.301Z,26080.00
2019-05-26T11:30:10.279Z,35520.00
2019-05-26T11:31:10.280Z,48672.00
2019-05-26T11:32:10.258Z,33184.00
2019-05-26T11:33:10.256Z,49152.00
2019-05-26T11:34:10.276Z,74464.00
2019-05-26T11:35:10.228Z,67680.00
2019-05-26T11:36:10.249Z,72544.00
2019-05-26T11:37:10.198Z,81920.00
2019-05-26T11:38:10.195Z,89056.00
2019-05-26T11:39:10.187Z,53568.00
2019-05-26T11:40:10.175Z,47456.00
2019-05-26T11:41:10.182Z,60384.00
2019-05-26T11:42:13.418Z,84672.00
2019-05-26T11:43:16.740Z,89216.00
2019-05-26T11:44:17.911Z,71424.00
2019-05-26T11:45:11.135Z,69088.00
2019-05-26T11:46:10.183Z,51168.00
2019-05-26T11:47:10.120Z,60768.00
2019-05-26T11:48:10.096Z,39488.00
2019-05-26T11:49:10.094Z,32352.00
2019-05-26T11:50:10.078Z,21824.00
2019-05-26T11:51:10.097Z,20096.00
2019-05-26T11:52:10.064Z,18848.00
2019-05-26T11:53:10.059Z,17600.00
2019-05-26T11:54:10.032Z,18112.00
2019-05-26T11:55:10.026Z,17632.00
2019-05-26T11:56:10.027Z,16800.00
2019-05-26T11:57:09.998Z,14996.00
2019-05-26T11:58:09.994Z,14592.00
2019-05-26T11:59:10.000Z,17312.00
2019-05-26T12:00:10.841Z,21216.00
2019-05-26T12:01:10.014Z,20640.00
2019-05-26T12:02:09.975Z,17312.00
2019-05-26T12:03:09.939Z,23392.00
2019-05-26T12:04:09.940Z,38016.00
2019-05-26T12:05:09.927Z,30240.00
2019-05-26T12:06:09.904Z,20000.00
2019-05-26T12:07:09.922Z,30752.00
2019-05-26T12:08:09.892Z,40896.00
2019-05-26T12:09:09.875Z,65280.00
2019-05-26T12:10:13.636Z,55808.00
2019-05-26T12:11:09.865Z,32672.00
2019-05-26T12:12:09.874Z,30336.00
2019-05-26T12:13:09.841Z,27776.00
2019-05-26T12:14:09.838Z,28864.00